メインページ
METAR-TAF:

METAR-TAF

空港 :

Mackenzie, ブリティッシュコロンビア州, カナダ

緯度: 55-18N, 経度: 123-08W, 海抜: 695m

現時点の気象観測

当レポートは1時間2分前の13:00(UTC)に作成
南/南東の風 8kt、最大16ktの突風を伴う
気温 16°C
湿度 63%
気圧 1005 hPa
視程: 14.5km
高度9500ftの千切れ雲あり
高度11000ftの曇り

METAR: CYZY 211300Z AUTO 15008G16KT 9SM BKN095 OVC110 16/09 A2967 RMK SLP051 DENSITY ALT 3100FT

時間: 07:02 (14:02 UTC)

予報

当レポートは7時間23分前の06:39(UTC)に作成
予報は21日の 07時(UTC)から 21日の 09時(UTC)まで有効
変向風 3kt
視程: 10km
高度7000ftの雲はほとんどない
高度14000ftの千切れ雲あり
21日の 07時(UTC)から 21日の 09時(UTC)まで一時的に
視程: 10km
高度7000ftの千切れ雲あり
弱いにわか雨

TAF: CYZY 210639Z 2107/2109 VRB03KT P6SM FEW070 BKN140 TEMPO 2107/2109 P6SM -SHRA BKN070 RMK FCST BASED ON AUTO OBS. NXT FCST WILL BE ISSUED AT 211445Z

4,000以上の空港の気象観測と天気予報(METAR報とTAF報)

利用可能な観測所は地図上に黄色い丸と赤い丸で示す。

丸の上にカーソルを重ねると観測所名を参照できる。

次にクリックすると気象観測と天気予報を参照できる。

マップの切り替え:黒色「×」印の緑ボタンをクリックして拡大、「-」印の緑ボタンをクリックして縮小、緑色の三角印をクリックして隣りの地図に切り替え


METAR-TAF: